createdAt,value
2023-02-17T05:00:40.617Z,9.65
2023-02-17T05:01:40.627Z,9.61
2023-02-17T05:02:40.541Z,9.60
2023-02-17T05:03:40.564Z,9.60
2023-02-17T05:04:40.490Z,9.58
2023-02-17T05:05:40.460Z,9.56
2023-02-17T05:06:40.421Z,9.56
2023-02-17T05:07:40.471Z,9.54
2023-02-17T05:08:47.408Z,9.56
2023-02-17T05:09:40.402Z,9.56
2023-02-17T05:10:40.376Z,9.56
2023-02-17T05:11:40.383Z,9.57
2023-02-17T05:12:40.438Z,9.56
2023-02-17T05:13:40.372Z,9.54
2023-02-17T05:14:40.316Z,9.53
2023-02-17T05:15:40.379Z,9.51
2023-02-17T05:16:40.297Z,9.51
2023-02-17T05:17:47.408Z,9.50
2023-02-17T05:18:40.264Z,9.48
2023-02-17T05:19:40.273Z,9.48
2023-02-17T05:20:48.276Z,9.50
2023-02-17T05:21:40.259Z,9.48
2023-02-17T05:22:40.212Z,9.51
2023-02-17T05:23:40.305Z,9.51
2023-02-17T05:24:40.198Z,9.54
2023-02-17T05:25:40.225Z,9.57
2023-02-17T05:26:40.193Z,9.61
2023-02-17T05:27:40.253Z,9.64
2023-02-17T05:28:40.323Z,9.64
2023-02-17T05:29:40.183Z,9.61
2023-02-17T05:30:40.165Z,9.58
2023-02-17T05:31:40.302Z,9.57
2023-02-17T05:32:40.120Z,9.51
2023-02-17T05:33:40.121Z,9.48
2023-02-17T05:34:40.232Z,9.43
2023-02-17T05:35:40.058Z,9.39
2023-02-17T05:36:40.077Z,9.35
2023-02-17T05:37:40.022Z,9.29
2023-02-17T05:38:40.047Z,9.24
2023-02-17T05:39:40.030Z,9.21
2023-02-17T05:40:40.085Z,9.21
2023-02-17T05:41:40.004Z,9.18
2023-02-17T05:42:39.995Z,9.17
2023-02-17T05:43:39.968Z,9.14
2023-02-17T05:44:39.965Z,9.13
2023-02-17T05:45:40.170Z,9.10
2023-02-17T05:46:40.145Z,9.05
2023-02-17T05:47:39.913Z,9.08
2023-02-17T05:48:39.903Z,9.08
2023-02-17T05:49:39.879Z,9.05
2023-02-17T05:50:39.871Z,9.08
2023-02-17T05:51:39.903Z,9.08
2023-02-17T05:52:39.869Z,9.11
2023-02-17T05:53:39.830Z,9.14
2023-02-17T05:54:39.830Z,9.15
2023-02-17T05:55:39.805Z,9.18
2023-02-17T05:56:39.799Z,9.23
2023-02-17T05:57:39.861Z,9.24
2023-02-17T05:58:39.800Z,9.29
2023-02-17T05:59:39.800Z,9.32
2023-02-17T06:00:39.793Z,9.32
2023-02-17T06:01:39.744Z,9.32
2023-02-17T06:02:39.779Z,9.32
2023-02-17T06:03:39.769Z,9.33
2023-02-17T06:04:39.770Z,9.35
2023-02-17T06:05:39.701Z,9.33
2023-02-17T06:06:39.679Z,9.33
2023-02-17T06:07:39.650Z,9.33
2023-02-17T06:08:39.740Z,9.33
2023-02-17T06:09:39.635Z,9.33
2023-02-17T06:10:39.661Z,9.35
2023-02-17T06:11:39.600Z,9.33
2023-02-17T06:12:39.626Z,9.33
2023-02-17T06:13:39.649Z,9.35
2023-02-17T06:14:39.593Z,9.39
2023-02-17T06:15:39.549Z,9.38
2023-02-17T06:16:39.583Z,9.38
2023-02-17T06:17:39.534Z,9.38
2023-02-17T06:18:39.758Z,9.38
2023-02-17T06:19:39.524Z,9.38
2023-02-17T06:20:39.521Z,9.36
2023-02-17T06:21:39.477Z,9.36
2023-02-17T06:22:39.515Z,9.36
2023-02-17T06:23:39.447Z,9.36
2023-02-17T06:24:39.509Z,9.36
2023-02-17T06:25:39.421Z,9.36
2023-02-17T06:26:39.436Z,9.36
2023-02-17T06:27:39.398Z,9.38
2023-02-17T06:28:39.395Z,9.35
2023-02-17T06:29:42.593Z,9.38
2023-02-17T06:30:39.373Z,9.39
2023-02-17T06:31:39.458Z,9.40
2023-02-17T06:32:39.390Z,9.40
2023-02-17T06:33:39.319Z,9.40
2023-02-17T06:34:39.382Z,9.42
2023-02-17T06:35:39.304Z,9.40
2023-02-17T06:36:39.310Z,9.42
2023-02-17T06:37:39.284Z,9.43
2023-02-17T06:38:39.269Z,9.43
2023-02-17T06:39:39.912Z,9.43
2023-02-17T06:40:39.268Z,9.46
2023-02-17T06:41:39.208Z,9.46
2023-02-17T06:42:39.207Z,9.47
2023-02-17T06:43:39.201Z,9.47
2023-02-17T06:44:39.206Z,9.48
2023-02-17T06:45:40.187Z,9.51
2023-02-17T06:46:39.175Z,9.53
2023-02-17T06:47:39.159Z,9.54
2023-02-17T06:48:39.159Z,9.57
2023-02-17T06:49:40.772Z,9.57
2023-02-17T06:50:39.124Z,9.58
2023-02-17T06:51:39.534Z,9.61
2023-02-17T06:52:39.098Z,9.64
2023-02-17T06:53:39.075Z,9.66
2023-02-17T06:54:39.075Z,9.68
2023-02-17T06:55:39.081Z,9.69
2023-02-17T06:56:46.854Z,9.71
2023-02-17T06:57:38.997Z,9.74
2023-02-17T06:58:46.079Z,9.74
2023-02-17T06:59:45.981Z,9.75
2023-02-17T07:00:38.996Z,9.76
2023-02-17T07:01:39.035Z,9.79
2023-02-17T07:02:39.566Z,9.81
2023-02-17T07:03:38.932Z,9.84
2023-02-17T07:04:38.957Z,9.84
2023-02-17T07:05:38.903Z,9.87
2023-02-17T07:06:38.958Z,9.89
2023-02-17T07:07:38.873Z,9.90
2023-02-17T07:08:39.414Z,9.90
2023-02-17T07:09:38.857Z,9.96
2023-02-17T07:10:38.875Z,10.17
2023-02-17T07:11:38.833Z,10.27
2023-02-17T07:12:38.863Z,10.33
2023-02-17T07:13:38.810Z,10.40
2023-02-17T07:14:38.866Z,10.40
2023-02-17T07:15:38.797Z,10.41
2023-02-17T07:16:38.839Z,10.41
2023-02-17T07:17:38.773Z,10.40
2023-02-17T07:18:39.006Z,10.38
2023-02-17T07:19:39.454Z,10.34
2023-02-17T07:20:39.375Z,10.36
2023-02-17T07:21:38.714Z,10.33
2023-02-17T07:22:38.757Z,10.30
2023-02-17T07:23:38.694Z,10.33
2023-02-17T07:24:38.703Z,10.32
2023-02-17T07:25:38.784Z,10.32
2023-02-17T07:26:38.692Z,10.30
2023-02-17T07:27:38.635Z,10.29
2023-02-17T07:28:38.658Z,10.30
2023-02-17T07:29:38.658Z,10.32
2023-02-17T07:30:38.766Z,10.30
2023-02-17T07:31:38.661Z,10.30
2023-02-17T07:32:38.611Z,10.30
2023-02-17T07:33:38.586Z,10.33
2023-02-17T07:34:38.572Z,10.34
2023-02-17T07:35:38.589Z,10.36
2023-02-17T07:36:38.551Z,10.34
2023-02-17T07:37:38.532Z,10.36
2023-02-17T07:38:38.507Z,10.40
2023-02-17T07:39:38.503Z,10.40
2023-02-17T07:40:39.850Z,10.41
2023-02-17T07:41:38.456Z,10.44
2023-02-17T07:42:38.734Z,10.45
2023-02-17T07:43:38.601Z,10.48
2023-02-17T07:44:38.518Z,10.52
2023-02-17T07:45:38.483Z,10.55
2023-02-17T07:46:38.429Z,10.59
2023-02-17T07:47:38.395Z,10.60
2023-02-17T07:48:38.418Z,10.64
2023-02-17T07:49:38.366Z,10.67
2023-02-17T07:50:38.496Z,10.71
2023-02-17T07:51:38.351Z,10.73
2023-02-17T07:52:38.395Z,10.74
2023-02-17T07:53:38.316Z,10.81
2023-02-17T07:54:38.356Z,10.86
2023-02-17T07:55:38.335Z,10.91
2023-02-17T07:56:38.288Z,10.99
2023-02-17T07:57:38.269Z,11.02
2023-02-17T07:58:38.293Z,11.04
2023-02-17T07:59:38.249Z,11.14
2023-02-17T08:00:38.322Z,11.21
2023-02-17T08:01:38.212Z,11.21
2023-02-17T08:02:38.218Z,11.27
2023-02-17T08:03:38.169Z,11.33
2023-02-17T08:04:38.194Z,11.35
2023-02-17T08:05:38.301Z,11.37
2023-02-17T08:06:38.168Z,11.39
2023-02-17T08:07:38.131Z,11.43
2023-02-17T08:08:38.168Z,11.43
2023-02-17T08:09:38.109Z,11.43
2023-02-17T08:10:38.312Z,11.40
2023-02-17T08:11:38.071Z,11.40
2023-02-17T08:12:38.089Z,11.40
2023-02-17T08:13:38.053Z,11.43
2023-02-17T08:14:38.069Z,11.46
2023-02-17T08:15:38.127Z,11.49
2023-02-17T08:16:38.074Z,11.52
2023-02-17T08:17:38.010Z,11.51
2023-02-17T08:18:37.997Z,11.52
2023-02-17T08:19:46.915Z,11.51
2023-02-17T08:20:39.025Z,11.51
2023-02-17T08:21:37.955Z,11.46
2023-02-17T08:22:37.971Z,11.44
2023-02-17T08:23:37.936Z,11.44
2023-02-17T08:24:37.927Z,11.46
2023-02-17T08:25:38.035Z,11.46
2023-02-17T08:26:44.920Z,11.49
2023-02-17T08:27:44.875Z,11.51
2023-02-17T08:28:37.855Z,11.49
2023-02-17T08:29:37.855Z,11.57
2023-02-17T08:30:37.929Z,11.64
2023-02-17T08:31:38.036Z,11.75
2023-02-17T08:32:37.836Z,11.88
2023-02-17T08:33:37.800Z,12.04
2023-02-17T08:34:37.873Z,12.19
2023-02-17T08:35:37.810Z,12.31
2023-02-17T08:36:37.803Z,12.45
2023-02-17T08:37:37.776Z,12.62
2023-02-17T08:38:37.754Z,12.79
2023-02-17T08:39:37.713Z,12.97
2023-02-17T08:40:37.780Z,13.08
2023-02-17T08:41:37.782Z,13.14
2023-02-17T08:42:37.700Z,13.23
2023-02-17T08:43:37.662Z,13.23
2023-02-17T08:44:37.691Z,13.30
2023-02-17T08:45:37.673Z,13.32
2023-02-17T08:46:37.836Z,13.38
2023-02-17T08:47:37.628Z,13.29
2023-02-17T08:48:37.622Z,13.29
2023-02-17T08:49:37.587Z,13.29
2023-02-17T08:50:37.653Z,13.23
2023-02-17T08:51:37.663Z,13.10
2023-02-17T08:52:37.567Z,13.03
2023-02-17T08:53:37.548Z,13.00
2023-02-17T08:54:37.542Z,13.01
2023-02-17T08:55:48.577Z,13.03
2023-02-17T08:56:38.884Z,13.05
2023-02-17T08:57:37.473Z,13.03
2023-02-17T08:58:37.493Z,12.96
2023-02-17T08:59:37.446Z,12.90
2023-02-17T09:00:37.468Z,12.87
2023-02-17T09:01:37.527Z,12.85
2023-02-17T09:02:37.661Z,12.86
2023-02-17T09:03:37.411Z,12.89
2023-02-17T09:04:37.507Z,12.90
2023-02-17T09:05:37.418Z,13.00
2023-02-17T09:06:37.393Z,13.04
2023-02-17T09:07:37.371Z,13.07
2023-02-17T09:08:37.788Z,13.14
2023-02-17T09:09:37.352Z,13.19
2023-02-17T09:10:37.333Z,13.22
2023-02-17T09:11:37.297Z,13.23
2023-02-17T09:12:37.360Z,13.29
2023-02-17T09:13:37.271Z,13.36
2023-02-17T09:14:37.355Z,13.44
2023-02-17T09:15:37.308Z,13.49
2023-02-17T09:16:38.298Z,13.59
2023-02-17T09:17:37.302Z,13.70
2023-02-17T09:18:37.223Z,13.91
2023-02-17T09:19:37.188Z,13.97
2023-02-17T09:20:37.860Z,13.95
2023-02-17T09:21:37.171Z,13.91
2023-02-17T09:22:37.232Z,13.81
2023-02-17T09:23:37.212Z,13.75
2023-02-17T09:24:37.158Z,13.64
2023-02-17T09:25:37.165Z,13.57
2023-02-17T09:26:37.206Z,13.55
2023-02-17T09:27:37.112Z,13.54
2023-02-17T09:28:37.111Z,13.52
2023-02-17T09:29:37.083Z,13.45
2023-02-17T09:30:37.143Z,13.41
2023-02-17T09:31:37.156Z,13.33
2023-02-17T09:32:37.102Z,13.23
2023-02-17T09:33:37.032Z,13.19
2023-02-17T09:34:37.021Z,13.07
2023-02-17T09:35:37.010Z,13.01
2023-02-17T09:36:37.019Z,12.92
2023-02-17T09:37:37.095Z,12.89
2023-02-17T09:38:37.000Z,12.82
2023-02-17T09:39:37.033Z,12.78
2023-02-17T09:40:36.945Z,12.72
2023-02-17T09:41:36.933Z,12.70
2023-02-17T09:42:37.010Z,12.65
2023-02-17T09:43:36.956Z,12.65
2023-02-17T09:44:36.919Z,12.64
2023-02-17T09:45:37.018Z,12.65
2023-02-17T09:46:36.922Z,12.65
2023-02-17T09:47:36.970Z,12.62
2023-02-17T09:48:36.873Z,12.62
2023-02-17T09:49:36.828Z,12.62
2023-02-17T09:50:36.838Z,12.62
2023-02-17T09:51:36.828Z,12.62
2023-02-17T09:52:37.122Z,12.64
2023-02-17T09:53:36.797Z,12.64
2023-02-17T09:54:36.797Z,12.65
2023-02-17T09:55:36.753Z,12.64
2023-02-17T09:56:36.732Z,12.67
2023-02-17T09:57:36.771Z,12.67
2023-02-17T09:58:36.892Z,12.65
2023-02-17T09:59:36.684Z,12.67
2023-02-17T10:00:36.687Z,12.68
2023-02-17T10:01:36.706Z,12.67
2023-02-17T10:02:36.615Z,12.68
2023-02-17T10:03:36.698Z,12.70
2023-02-17T10:04:37.450Z,12.75
2023-02-17T10:05:36.617Z,12.79
2023-02-17T10:06:36.656Z,12.83
2023-02-17T10:07:36.644Z,12.83
2023-02-17T10:08:36.567Z,12.83
2023-02-17T10:09:36.600Z,12.85
2023-02-17T10:10:36.648Z,12.89
2023-02-17T10:11:36.553Z,12.93
2023-02-17T10:12:36.489Z,12.97
2023-02-17T10:13:36.578Z,13.07
2023-02-17T10:14:36.517Z,13.10
2023-02-17T10:15:36.958Z,13.10
2023-02-17T10:16:36.544Z,13.10
2023-02-17T10:17:36.501Z,13.12
2023-02-17T10:18:36.450Z,13.10
2023-02-17T10:19:36.424Z,13.07
2023-02-17T10:20:36.449Z,13.07
2023-02-17T10:21:36.706Z,13.12
2023-02-17T10:22:36.358Z,13.20
2023-02-17T10:23:36.393Z,13.29
2023-02-17T10:24:36.419Z,13.42
2023-02-17T10:25:36.350Z,13.55
2023-02-17T10:26:36.373Z,13.63
2023-02-17T10:27:36.548Z,13.78
2023-02-17T10:28:36.272Z,13.88
2023-02-17T10:29:36.310Z,13.99
2023-02-17T10:30:36.296Z,14.14
2023-02-17T10:31:36.378Z,14.24
2023-02-17T10:32:36.444Z,14.28
2023-02-17T10:33:36.489Z,14.40
2023-02-17T10:34:36.257Z,14.43
2023-02-17T10:35:36.207Z,14.42
2023-02-17T10:36:36.276Z,14.36
2023-02-17T10:37:38.443Z,14.35
2023-02-17T10:38:36.154Z,14.36
2023-02-17T10:39:36.885Z,14.40
2023-02-17T10:40:36.159Z,14.42
2023-02-17T10:41:36.154Z,14.40
2023-02-17T10:42:36.099Z,14.42
2023-02-17T10:43:36.115Z,14.39
2023-02-17T10:44:36.133Z,14.28
2023-02-17T10:45:36.237Z,14.14
2023-02-17T10:46:36.059Z,14.02
2023-02-17T10:47:36.053Z,14.06
2023-02-17T10:48:36.020Z,14.14
2023-02-17T10:49:36.027Z,14.14
2023-02-17T10:50:36.825Z,14.17
2023-02-17T10:51:36.003Z,14.15
2023-02-17T10:52:35.961Z,14.24
2023-02-17T10:53:35.983Z,14.29
2023-02-17T10:54:35.953Z,14.35
2023-02-17T10:55:35.960Z,14.42
2023-02-17T10:56:36.402Z,14.50
2023-02-17T10:57:35.932Z,14.54
2023-02-17T10:58:35.931Z,14.69
2023-02-17T10:59:35.925Z,14.72
2023-02-17T11:00:36.024Z,14.86
2023-02-17T11:01:35.881Z,15.11
2023-02-17T11:02:36.702Z,15.23
2023-02-17T11:03:35.889Z,15.23
2023-02-17T11:04:35.860Z,15.28
2023-02-17T11:05:35.837Z,15.28
2023-02-17T11:06:35.786Z,15.27
2023-02-17T11:07:35.799Z,15.10
2023-02-17T11:08:36.352Z,14.95
2023-02-17T11:09:35.771Z,14.98
2023-02-17T11:10:35.750Z,14.96
2023-02-17T11:11:35.753Z,14.94
2023-02-17T11:12:35.762Z,14.94
2023-02-17T11:13:35.734Z,14.81
2023-02-17T11:14:35.804Z,14.75
2023-02-17T11:15:35.710Z,14.77
2023-02-17T11:16:35.696Z,14.65
2023-02-17T11:17:35.710Z,14.55
2023-02-17T11:18:35.666Z,14.55
2023-02-17T11:19:35.655Z,14.55
2023-02-17T11:20:35.677Z,14.54
2023-02-17T11:21:35.616Z,14.50
2023-02-17T11:22:35.601Z,14.43
2023-02-17T11:23:35.610Z,14.47
2023-02-17T11:24:35.577Z,14.60
2023-02-17T11:25:35.686Z,14.77
2023-02-17T11:26:35.555Z,14.89
2023-02-17T11:27:35.563Z,14.95
2023-02-17T11:28:35.521Z,14.95
2023-02-17T11:29:35.527Z,14.83
2023-02-17T11:30:35.605Z,14.72
2023-02-17T11:31:35.598Z,14.75
2023-02-17T11:32:35.460Z,14.84
2023-02-17T11:33:35.474Z,14.98
2023-02-17T11:34:35.423Z,15.13
2023-02-17T11:35:35.777Z,15.21
2023-02-17T11:36:35.404Z,15.21
2023-02-17T11:37:35.401Z,15.23
2023-02-17T11:38:35.388Z,15.23
2023-02-17T11:39:35.380Z,15.34
2023-02-17T11:40:35.365Z,15.49
2023-02-17T11:41:35.772Z,15.53
2023-02-17T11:42:35.324Z,15.41
2023-02-17T11:43:35.348Z,15.38
2023-02-17T11:44:35.299Z,15.34
2023-02-17T11:45:35.390Z,15.32
2023-02-17T11:46:35.290Z,15.31
2023-02-17T11:47:35.494Z,15.34
2023-02-17T11:48:35.262Z,15.32
2023-02-17T11:49:35.250Z,15.23
2023-02-17T11:50:40.868Z,15.25
2023-02-17T11:51:36.236Z,15.28
2023-02-17T11:52:35.190Z,15.29
2023-02-17T11:53:35.543Z,15.20
2023-02-17T11:54:35.173Z,15.13
2023-02-17T11:55:35.177Z,14.99
2023-02-17T11:56:35.147Z,14.91
2023-02-17T11:57:35.157Z,14.91
2023-02-17T11:58:35.115Z,14.84
2023-02-17T11:59:36.246Z,14.70
2023-02-17T12:00:35.084Z,14.60
2023-02-17T12:01:35.138Z,14.45
2023-02-17T12:02:35.196Z,14.33
2023-02-17T12:03:36.743Z,14.25
2023-02-17T12:04:35.102Z,14.14
2023-02-17T12:05:35.145Z,14.10
2023-02-17T12:06:35.021Z,14.06
2023-02-17T12:07:35.029Z,14.02
2023-02-17T12:08:35.006Z,14.02
2023-02-17T12:09:34.991Z,13.99
2023-02-17T12:10:35.045Z,14.00
2023-02-17T12:11:34.954Z,14.02
2023-02-17T12:12:34.953Z,14.04
2023-02-17T12:13:34.951Z,14.02
2023-02-17T12:14:34.936Z,14.03
2023-02-17T12:15:35.164Z,14.00
2023-02-17T12:16:34.925Z,14.00
2023-02-17T12:17:34.889Z,13.99
2023-02-17T12:18:34.858Z,13.99
2023-02-17T12:19:36.969Z,13.96
2023-02-17T12:20:34.893Z,13.96
2023-02-17T12:21:35.123Z,13.91
2023-02-17T12:22:34.802Z,13.85
2023-02-17T12:23:34.820Z,13.79
2023-02-17T12:24:34.838Z,13.75
2023-02-17T12:25:34.794Z,13.70
2023-02-17T12:26:34.801Z,13.66
2023-02-17T12:27:34.831Z,13.63
2023-02-17T12:28:34.740Z,13.59
2023-02-17T12:29:34.738Z,13.60
2023-02-17T12:30:34.786Z,13.60
2023-02-17T12:31:34.783Z,13.59
2023-02-17T12:32:34.695Z,13.57
2023-02-17T12:33:34.992Z,13.59
2023-02-17T12:34:34.640Z,13.62
2023-02-17T12:35:34.659Z,13.60
2023-02-17T12:36:34.625Z,13.59
2023-02-17T12:37:34.634Z,13.62
2023-02-17T12:38:34.618Z,13.64
2023-02-17T12:39:35.270Z,13.63
2023-02-17T12:40:34.610Z,13.64
2023-02-17T12:41:34.573Z,13.66
2023-02-17T12:42:34.539Z,13.70
2023-02-17T12:43:34.550Z,13.73
2023-02-17T12:44:34.552Z,13.73
2023-02-17T12:45:34.568Z,13.69
2023-02-17T12:46:34.491Z,13.69
2023-02-17T12:47:34.659Z,13.67
2023-02-17T12:48:34.459Z,13.69
2023-02-17T12:49:34.478Z,13.69
2023-02-17T12:50:34.532Z,13.69
2023-02-17T12:51:34.452Z,13.67
2023-02-17T12:52:34.431Z,13.64
2023-02-17T12:53:34.439Z,13.60
2023-02-17T12:54:34.407Z,13.60
2023-02-17T12:55:34.448Z,13.62
2023-02-17T12:56:34.374Z,13.63
2023-02-17T12:57:34.382Z,13.67
2023-02-17T12:58:34.359Z,13.70
2023-02-17T12:59:34.368Z,13.78
2023-02-17T13:00:34.375Z,13.87
2023-02-17T13:01:34.378Z,13.97
2023-02-17T13:02:34.307Z,14.04
2023-02-17T13:03:34.322Z,14.09
2023-02-17T13:04:34.260Z,14.18
2023-02-17T13:05:34.330Z,14.22
2023-02-17T13:06:34.229Z,14.32
2023-02-17T13:07:34.376Z,14.42
2023-02-17T13:08:34.288Z,14.52
2023-02-17T13:09:34.214Z,14.60
2023-02-17T13:10:34.275Z,14.69
2023-02-17T13:11:34.231Z,14.64
2023-02-17T13:12:34.221Z,14.69
2023-02-17T13:13:34.158Z,14.70
2023-02-17T13:14:34.128Z,14.65
2023-02-17T13:15:34.227Z,14.62
2023-02-17T13:16:34.148Z,14.62
2023-02-17T13:17:34.106Z,14.69
2023-02-17T13:18:34.123Z,14.72
2023-02-17T13:19:34.087Z,14.68
2023-02-17T13:20:34.179Z,14.68
2023-02-17T13:21:34.090Z,14.68
2023-02-17T13:22:34.029Z,14.62
2023-02-17T13:23:34.030Z,14.54
2023-02-17T13:24:34.038Z,14.50
2023-02-17T13:25:37.246Z,14.42
2023-02-17T13:26:34.001Z,14.42
2023-02-17T13:27:34.078Z,14.42
2023-02-17T13:28:33.956Z,14.39
2023-02-17T13:29:33.949Z,14.36
2023-02-17T13:30:34.065Z,14.33
2023-02-17T13:31:36.135Z,14.28
2023-02-17T13:32:33.906Z,14.24
2023-02-17T13:33:33.949Z,14.21
2023-02-17T13:34:33.901Z,14.21
2023-02-17T13:35:33.894Z,14.21
2023-02-17T13:36:34.179Z,14.20
2023-02-17T13:37:33.845Z,14.21
2023-02-17T13:38:33.814Z,14.17
2023-02-17T13:39:33.872Z,14.15
2023-02-17T13:40:33.814Z,14.15
2023-02-17T13:41:33.810Z,14.18
2023-02-17T13:42:34.141Z,14.17
2023-02-17T13:43:33.797Z,14.17
2023-02-17T13:44:33.777Z,14.18
2023-02-17T13:45:33.779Z,14.20
2023-02-17T13:46:33.766Z,14.24
2023-02-17T13:47:35.330Z,14.29
2023-02-17T13:48:33.824Z,14.29
2023-02-17T13:49:33.685Z,14.27
2023-02-17T13:50:33.710Z,14.27
2023-02-17T13:51:33.666Z,14.24
2023-02-17T13:52:33.679Z,14.27
2023-02-17T13:53:34.937Z,14.28
2023-02-17T13:54:34.629Z,14.29
2023-02-17T13:55:33.601Z,14.32
2023-02-17T13:56:33.610Z,14.32
2023-02-17T13:57:33.584Z,14.35
2023-02-17T13:58:33.577Z,14.36
2023-02-17T13:59:34.532Z,14.37
2023-02-17T14:00:34.281Z,14.39
2023-02-17T14:01:33.587Z,14.40
2023-02-17T14:02:36.310Z,14.39
2023-02-17T14:03:33.495Z,14.46
2023-02-17T14:04:33.543Z,14.55
2023-02-17T14:05:33.469Z,14.60
2023-02-17T14:06:33.526Z,14.57
2023-02-17T14:07:33.464Z,14.57
2023-02-17T14:08:33.455Z,14.65
2023-02-17T14:09:33.417Z,14.65
2023-02-17T14:10:34.238Z,14.69
2023-02-17T14:11:33.412Z,14.75
2023-02-17T14:12:33.427Z,14.73
2023-02-17T14:13:33.381Z,14.68
2023-02-17T14:14:33.460Z,14.65
2023-02-17T14:15:33.474Z,14.61
2023-02-17T14:16:33.496Z,14.64
2023-02-17T14:17:33.307Z,14.64
2023-02-17T14:18:33.336Z,14.60
2023-02-17T14:19:33.292Z,14.60
2023-02-17T14:20:33.329Z,14.62
2023-02-17T14:21:33.504Z,14.64
2023-02-17T14:22:33.323Z,14.62
2023-02-17T14:23:33.258Z,14.57
2023-02-17T14:24:33.261Z,14.46
2023-02-17T14:25:33.307Z,14.39
2023-02-17T14:26:33.279Z,14.33
2023-02-17T14:27:33.334Z,14.35
2023-02-17T14:28:33.198Z,14.33
2023-02-17T14:29:33.167Z,14.29
2023-02-17T14:30:33.244Z,14.32
2023-02-17T14:31:33.197Z,14.36
2023-02-17T14:32:33.245Z,14.37
2023-02-17T14:33:33.173Z,14.36
2023-02-17T14:34:33.129Z,14.39
2023-02-17T14:35:35.066Z,14.43
2023-02-17T14:36:33.168Z,14.46
2023-02-17T14:37:33.204Z,14.52
2023-02-17T14:38:33.134Z,14.60
2023-02-17T14:39:33.045Z,14.68
2023-02-17T14:40:33.031Z,14.73
2023-02-17T14:41:33.063Z,14.81
2023-02-17T14:42:33.084Z,14.84
2023-02-17T14:43:33.676Z,14.91
2023-02-17T14:44:32.996Z,14.98
2023-02-17T14:45:32.964Z,15.06
2023-02-17T14:46:33.011Z,15.10
2023-02-17T14:47:32.949Z,15.11
2023-02-17T14:48:32.952Z,15.09
2023-02-17T14:49:33.360Z,15.03
2023-02-17T14:50:32.926Z,15.06
2023-02-17T14:51:32.904Z,15.06
2023-02-17T14:52:32.883Z,15.09
2023-02-17T14:53:32.864Z,15.03
2023-02-17T14:54:32.904Z,15.02
2023-02-17T14:55:33.073Z,14.94
2023-02-17T14:56:32.845Z,14.89
2023-02-17T14:57:32.806Z,14.86
2023-02-17T14:58:32.882Z,14.83
2023-02-17T14:59:32.801Z,14.80
2023-02-17T15:00:33.173Z,14.80
2023-02-17T15:01:32.873Z,14.77
2023-02-17T15:02:32.765Z,14.72
2023-02-17T15:03:39.767Z,14.69
2023-02-17T15:04:39.825Z,14.65
2023-02-17T15:05:32.805Z,14.65
2023-02-17T15:06:32.743Z,14.64
2023-02-17T15:07:32.673Z,14.65
2023-02-17T15:08:32.696Z,14.70
2023-02-17T15:09:32.643Z,14.77
2023-02-17T15:10:32.709Z,14.80
2023-02-17T15:11:32.615Z,14.72
2023-02-17T15:12:32.693Z,14.75
2023-02-17T15:13:32.604Z,14.84
2023-02-17T15:14:32.621Z,14.95
2023-02-17T15:15:32.636Z,15.03
2023-02-17T15:16:32.599Z,15.11
2023-02-17T15:17:32.544Z,15.11
2023-02-17T15:18:32.559Z,15.13
2023-02-17T15:19:32.602Z,15.13
2023-02-17T15:20:32.914Z,15.13
2023-02-17T15:21:32.508Z,15.09
2023-02-17T15:22:32.491Z,15.10
2023-02-17T15:23:32.477Z,15.16
2023-02-17T15:24:33.543Z,15.17
2023-02-17T15:25:32.604Z,15.21
2023-02-17T15:26:32.514Z,15.16
2023-02-17T15:27:32.439Z,15.10
2023-02-17T15:28:32.426Z,15.20
2023-02-17T15:29:32.393Z,15.21
2023-02-17T15:30:32.670Z,15.14
2023-02-17T15:31:32.431Z,15.07
2023-02-17T15:32:32.366Z,15.10
2023-02-17T15:33:32.340Z,15.06
2023-02-17T15:34:32.341Z,14.99
2023-02-17T15:35:32.317Z,14.99
2023-02-17T15:36:32.350Z,14.99
2023-02-17T15:37:32.280Z,14.96
2023-02-17T15:38:32.291Z,15.01
2023-02-17T15:39:32.284Z,14.98
2023-02-17T15:40:33.037Z,14.96
2023-02-17T15:41:32.236Z,14.92
2023-02-17T15:42:32.224Z,14.91
2023-02-17T15:43:32.200Z,14.89
2023-02-17T15:44:32.222Z,14.88
2023-02-17T15:45:32.172Z,14.78
2023-02-17T15:46:34.207Z,14.78
2023-02-17T15:47:32.142Z,14.84
2023-02-17T15:48:32.182Z,14.86
2023-02-17T15:49:32.153Z,14.86
2023-02-17T15:50:32.133Z,14.83
2023-02-17T15:51:32.109Z,14.83
2023-02-17T15:52:34.984Z,14.84
2023-02-17T15:53:32.073Z,14.84
2023-02-17T15:54:32.094Z,14.80
2023-02-17T15:55:32.052Z,14.75
2023-02-17T15:56:32.061Z,14.75
2023-02-17T15:57:32.025Z,14.72
2023-02-17T15:58:32.371Z,14.69
2023-02-17T15:59:32.008Z,14.65
2023-02-17T16:00:32.072Z,14.60
2023-02-17T16:01:32.099Z,14.57
2023-02-17T16:02:32.033Z,14.57
2023-02-17T16:03:31.994Z,14.55
2023-02-17T16:04:32.561Z,14.51
2023-02-17T16:05:31.951Z,14.47
2023-02-17T16:06:31.921Z,14.45
2023-02-17T16:07:31.906Z,14.42
2023-02-17T16:08:31.903Z,14.42
2023-02-17T16:09:31.869Z,14.37
2023-02-17T16:10:31.923Z,14.35
2023-02-17T16:11:31.859Z,14.27
2023-02-17T16:12:31.855Z,14.25
2023-02-17T16:13:31.818Z,14.24
2023-02-17T16:14:31.836Z,14.22
2023-02-17T16:15:31.873Z,14.20
2023-02-17T16:16:31.921Z,14.17
2023-02-17T16:17:31.768Z,14.12
2023-02-17T16:18:31.778Z,14.07
2023-02-17T16:19:31.758Z,14.06
2023-02-17T16:20:34.386Z,14.03
2023-02-17T16:21:31.774Z,13.99
2023-02-17T16:22:31.734Z,13.99
2023-02-17T16:23:31.689Z,13.96
2023-02-17T16:24:31.733Z,13.92
2023-02-17T16:25:32.407Z,13.89
2023-02-17T16:26:33.455Z,13.88
2023-02-17T16:27:31.672Z,13.87
2023-02-17T16:28:31.670Z,13.84
2023-02-17T16:29:31.612Z,13.81
2023-02-17T16:30:31.676Z,13.78
2023-02-17T16:31:32.283Z,13.73
2023-02-17T16:32:33.947Z,13.71
2023-02-17T16:33:31.566Z,13.70
2023-02-17T16:34:31.562Z,13.70
2023-02-17T16:35:31.550Z,13.70
2023-02-17T16:36:31.542Z,13.73
2023-02-17T16:37:32.091Z,13.73
2023-02-17T16:38:31.549Z,13.75
2023-02-17T16:39:31.471Z,13.75
2023-02-17T16:40:31.511Z,13.78
2023-02-17T16:41:31.438Z,13.81
2023-02-17T16:42:31.504Z,13.82
2023-02-17T16:43:32.790Z,13.82
2023-02-17T16:44:31.489Z,13.79
2023-02-17T16:45:31.681Z,13.77
2023-02-17T16:46:31.431Z,13.73
2023-02-17T16:47:31.360Z,13.69
2023-02-17T16:48:31.393Z,13.67
2023-02-17T16:49:31.757Z,13.63
2023-02-17T16:50:31.350Z,13.59
2023-02-17T16:51:31.308Z,13.55
2023-02-17T16:52:31.328Z,13.51
2023-02-17T16:53:31.286Z,13.49
2023-02-17T16:54:32.377Z,13.46
2023-02-17T16:55:31.445Z,13.46
2023-02-17T16:56:31.264Z,13.45
2023-02-17T16:57:31.225Z,13.44
2023-02-17T16:58:31.233Z,13.42
2023-02-17T16:59:31.228Z,13.38
2023-02-17T17:00:31.226Z,13.33
2023-02-17T17:01:31.320Z,13.32
2023-02-17T17:02:31.217Z,13.30
2023-02-17T17:03:31.188Z,13.29
2023-02-17T17:04:31.130Z,13.32
2023-02-17T17:05:31.116Z,13.30
2023-02-17T17:06:31.162Z,13.26
2023-02-17T17:07:31.099Z,13.28
2023-02-17T17:08:31.142Z,13.28
2023-02-17T17:09:31.068Z,13.29
2023-02-17T17:10:31.077Z,13.36
2023-02-17T17:11:31.079Z,13.36
2023-02-17T17:12:31.046Z,13.38
2023-02-17T17:13:31.025Z,13.36
2023-02-17T17:14:31.020Z,13.36
2023-02-17T17:15:38.072Z,13.38
2023-02-17T17:16:31.350Z,13.38
2023-02-17T17:17:32.686Z,13.38
2023-02-17T17:18:31.726Z,13.42
2023-02-17T17:19:30.952Z,13.48
2023-02-17T17:20:31.015Z,13.55
2023-02-17T17:21:31.110Z,13.57
2023-02-17T17:22:30.926Z,13.57
2023-02-17T17:23:30.893Z,13.57
2023-02-17T17:24:30.894Z,13.57
2023-02-17T17:25:31.109Z,13.57
2023-02-17T17:26:31.586Z,13.57
2023-02-17T17:27:30.845Z,13.59
2023-02-17T17:28:30.824Z,13.62
2023-02-17T17:29:30.825Z,13.62
2023-02-17T17:30:30.818Z,13.63
2023-02-17T17:31:30.951Z,13.62
2023-02-17T17:32:31.530Z,13.64
2023-02-17T17:33:30.754Z,13.69
2023-02-17T17:34:30.777Z,13.71
2023-02-17T17:35:30.725Z,13.77
2023-02-17T17:36:30.757Z,13.79
2023-02-17T17:37:30.710Z,13.79
2023-02-17T17:38:31.185Z,13.79
2023-02-17T17:39:30.665Z,13.78
2023-02-17T17:40:30.696Z,13.78
2023-02-17T17:41:30.646Z,13.81
2023-02-17T17:42:30.664Z,13.79
2023-02-17T17:43:30.661Z,13.81
2023-02-17T17:44:30.680Z,13.79
2023-02-17T17:45:30.585Z,13.79
2023-02-17T17:46:30.601Z,13.81
2023-02-17T17:47:30.661Z,13.81
2023-02-17T17:48:30.634Z,13.82
2023-02-17T17:49:30.562Z,13.81
2023-02-17T17:50:31.133Z,13.81
2023-02-17T17:51:30.590Z,13.79
2023-02-17T17:52:30.512Z,13.79
2023-02-17T17:53:30.502Z,13.77
2023-02-17T17:54:30.481Z,13.75
2023-02-17T17:55:30.487Z,13.75
2023-02-17T17:56:31.210Z,13.71